createdAt,value
2018-03-25T00:02:24.014Z,6.98
2018-03-25T00:04:52.441Z,6.99
2018-03-25T00:07:19.872Z,6.98
2018-03-25T00:09:47.430Z,6.89
2018-03-25T00:12:15.210Z,6.84
2018-03-25T00:14:43.450Z,6.83
2018-03-25T00:17:11.380Z,6.84
2018-03-25T00:19:38.870Z,6.88
2018-03-25T00:22:06.329Z,6.91
2018-03-25T00:24:33.790Z,6.90
2018-03-25T00:27:01.242Z,6.88
2018-03-25T00:29:29.651Z,6.80
2018-03-25T00:31:57.132Z,6.77
2018-03-25T00:34:24.588Z,6.76
2018-03-25T00:36:52.143Z,6.78
2018-03-25T00:39:19.608Z,6.76
2018-03-25T00:41:47.856Z,6.74
2018-03-25T00:44:15.330Z,6.69
2018-03-25T00:46:42.771Z,6.66
2018-03-25T00:49:10.270Z,6.67
2018-03-25T00:51:37.732Z,6.67
2018-03-25T00:54:05.233Z,6.60
2018-03-25T00:56:32.672Z,6.60
2018-03-25T00:59:00.148Z,6.55
2018-03-25T01:01:27.627Z,6.52
2018-03-25T01:03:55.047Z,6.51
2018-03-25T01:06:22.490Z,6.45
2018-03-25T01:08:49.963Z,6.39
2018-03-25T01:11:17.416Z,6.36
2018-03-25T01:13:44.880Z,6.32
2018-03-25T01:16:12.387Z,6.32
2018-03-25T01:18:40.297Z,6.33
2018-03-25T01:21:07.788Z,6.35
2018-03-25T01:23:35.270Z,6.37
2018-03-25T01:26:02.731Z,6.40
2018-03-25T01:28:30.318Z,6.34
2018-03-25T01:30:57.764Z,6.33
2018-03-25T01:33:25.221Z,6.26
2018-03-25T01:35:54.474Z,6.26
2018-03-25T01:38:23.354Z,6.25
2018-03-25T01:40:51.673Z,6.17
2018-03-25T01:43:19.262Z,6.19
2018-03-25T01:45:46.807Z,6.14
2018-03-25T01:48:14.258Z,6.12
2018-03-25T01:50:41.795Z,6.16
2018-03-25T01:53:09.279Z,6.05
2018-03-25T01:55:36.751Z,5.99
2018-03-25T01:58:04.369Z,6.03
2018-03-25T02:00:31.859Z,6.06
2018-03-25T02:02:59.312Z,6.05
2018-03-25T02:05:26.805Z,6.02
2018-03-25T02:07:54.259Z,6.02
2018-03-25T02:10:21.720Z,6.01
2018-03-25T02:12:49.156Z,5.93
2018-03-25T02:15:16.708Z,5.96
2018-03-25T02:17:44.165Z,5.94
2018-03-25T02:20:11.703Z,5.93
2018-03-25T02:22:39.151Z,5.88
2018-03-25T02:25:06.719Z,5.80
2018-03-25T02:27:34.199Z,5.80
2018-03-25T02:30:01.650Z,5.73
2018-03-25T02:32:29.145Z,5.73
2018-03-25T02:34:56.628Z,5.73
2018-03-25T02:37:24.075Z,5.71
2018-03-25T02:39:51.508Z,5.66
2018-03-25T02:42:18.975Z,5.65
2018-03-25T02:44:46.500Z,5.62
2018-03-25T02:47:13.945Z,5.67
2018-03-25T02:49:41.517Z,5.68
2018-03-25T02:52:08.970Z,5.61
2018-03-25T02:54:36.427Z,5.55
2018-03-25T02:57:03.931Z,5.57
2018-03-25T02:59:31.434Z,5.57
2018-03-25T03:01:59.253Z,5.56
2018-03-25T03:04:26.692Z,5.52
2018-03-25T03:06:54.183Z,5.54
2018-03-25T03:09:21.648Z,5.59
2018-03-25T03:11:49.172Z,5.59
2018-03-25T03:14:16.667Z,5.59
2018-03-25T03:16:44.180Z,5.59
2018-03-25T03:19:12.715Z,5.54
2018-03-25T03:21:40.203Z,5.44
2018-03-25T03:24:07.658Z,5.37
2018-03-25T03:26:35.183Z,5.32
2018-03-25T03:29:02.648Z,5.30
2018-03-25T03:31:30.098Z,5.29
2018-03-25T03:33:57.586Z,5.31
2018-03-25T03:36:25.046Z,5.33
2018-03-25T03:38:52.489Z,5.32
2018-03-25T03:41:19.962Z,5.28
2018-03-25T03:43:47.748Z,5.27
2018-03-25T03:46:15.226Z,5.24
2018-03-25T03:48:42.663Z,5.28
2018-03-25T03:51:10.234Z,5.28
2018-03-25T03:53:37.679Z,5.25
2018-03-25T03:56:05.136Z,5.26
2018-03-25T03:58:32.719Z,5.26
2018-03-25T04:01:00.158Z,5.20
2018-03-25T04:03:27.618Z,5.17
2018-03-25T04:05:55.148Z,5.19
2018-03-25T04:08:22.611Z,5.24
2018-03-25T04:10:50.065Z,5.18
2018-03-25T04:13:17.522Z,5.10
2018-03-25T04:15:44.982Z,5.07
2018-03-25T04:18:12.455Z,5.02
2018-03-25T04:20:39.961Z,4.99
2018-03-25T04:23:07.666Z,4.92
2018-03-25T04:25:35.107Z,4.92
2018-03-25T04:28:02.637Z,4.93
2018-03-25T04:30:31.323Z,4.94
2018-03-25T04:32:58.780Z,4.91
2018-03-25T04:35:26.241Z,4.93
2018-03-25T04:37:54.656Z,4.92
2018-03-25T04:40:22.140Z,4.88
2018-03-25T04:42:49.589Z,4.87
2018-03-25T04:45:17.049Z,4.87
2018-03-25T04:47:44.795Z,4.84
2018-03-25T04:50:12.251Z,4.86
2018-03-25T04:52:39.771Z,4.86
2018-03-25T04:55:07.269Z,4.84
2018-03-25T04:57:34.739Z,4.81
2018-03-25T05:00:02.213Z,4.76
2018-03-25T05:02:29.710Z,4.75
2018-03-25T05:04:57.177Z,4.72
2018-03-25T05:07:24.675Z,4.76
2018-03-25T05:09:52.141Z,4.81
2018-03-25T05:12:19.629Z,4.78
2018-03-25T05:14:47.095Z,4.78
2018-03-25T05:17:14.540Z,4.80
2018-03-25T05:19:42.005Z,4.79
2018-03-25T05:22:09.431Z,4.76
2018-03-25T05:24:36.885Z,4.74
2018-03-25T05:27:04.343Z,4.74
2018-03-25T05:29:31.768Z,4.70
2018-03-25T05:31:59.292Z,4.72
2018-03-25T05:34:26.753Z,4.76
2018-03-25T05:36:54.235Z,4.74
2018-03-25T05:39:22.189Z,4.74
2018-03-25T05:41:49.643Z,4.75
2018-03-25T05:44:17.108Z,4.77
2018-03-25T05:46:44.557Z,4.74
2018-03-25T05:49:12.939Z,4.72
2018-03-25T05:51:40.420Z,4.74
2018-03-25T05:54:07.885Z,4.76
2018-03-25T05:56:35.339Z,4.74
2018-03-25T05:59:02.785Z,4.72
2018-03-25T06:01:30.273Z,4.75
2018-03-25T06:03:57.805Z,4.74
2018-03-25T06:06:25.981Z,4.78
2018-03-25T06:08:53.459Z,4.79
2018-03-25T06:11:20.917Z,4.84
2018-03-25T06:13:48.418Z,4.87
2018-03-25T06:16:15.881Z,4.87
2018-03-25T06:18:43.369Z,4.80
2018-03-25T06:21:11.007Z,4.80
2018-03-25T06:23:38.513Z,4.76
2018-03-25T06:26:06.119Z,4.78
2018-03-25T06:28:33.707Z,4.81
2018-03-25T06:31:01.162Z,4.84
2018-03-25T06:33:28.626Z,4.85
2018-03-25T06:35:56.107Z,4.80
2018-03-25T06:38:23.643Z,4.85
2018-03-25T06:40:51.145Z,4.88
2018-03-25T06:43:18.656Z,4.90
2018-03-25T06:45:47.133Z,4.94
2018-03-25T06:48:14.599Z,4.91
2018-03-25T06:50:42.294Z,4.89
2018-03-25T06:53:09.814Z,4.93
2018-03-25T06:55:37.511Z,4.88
2018-03-25T06:58:05.077Z,4.88
2018-03-25T07:00:32.557Z,4.88
2018-03-25T07:03:00.023Z,4.79
2018-03-25T07:05:28.168Z,4.73
2018-03-25T07:07:55.629Z,4.70
2018-03-25T07:10:23.147Z,4.64
2018-03-25T07:12:50.607Z,4.66
2018-03-25T07:15:18.155Z,4.68
2018-03-25T07:17:45.743Z,4.73
2018-03-25T07:20:13.265Z,4.75
2018-03-25T07:22:40.889Z,4.74
2018-03-25T07:25:08.390Z,4.78
2018-03-25T07:27:35.888Z,4.79
2018-03-25T07:30:03.395Z,4.79
2018-03-25T07:32:30.892Z,4.79
2018-03-25T07:34:58.396Z,4.82
2018-03-25T07:37:25.978Z,4.83
2018-03-25T07:39:53.472Z,4.90
2018-03-25T07:42:20.920Z,4.99
2018-03-25T07:44:48.358Z,5.09
2018-03-25T07:47:16.839Z,5.20
2018-03-25T07:49:44.290Z,5.33
2018-03-25T07:52:11.778Z,5.43
2018-03-25T07:54:39.282Z,5.46
2018-03-25T07:57:06.772Z,5.48
2018-03-25T07:59:34.356Z,5.49
2018-03-25T08:02:01.860Z,5.56
2018-03-25T08:04:29.434Z,5.65
2018-03-25T08:06:56.933Z,5.75
2018-03-25T08:09:24.530Z,5.81
2018-03-25T08:11:52.004Z,5.86
2018-03-25T08:14:19.476Z,5.96
2018-03-25T08:16:47.004Z,6.04
2018-03-25T08:19:14.611Z,6.19
2018-03-25T08:21:42.114Z,6.28
2018-03-25T08:24:09.614Z,6.36
2018-03-25T08:26:37.104Z,6.43
2018-03-25T08:29:04.615Z,6.57
2018-03-25T08:31:32.065Z,6.71
2018-03-25T08:33:59.592Z,6.84
2018-03-25T08:36:27.059Z,6.98
2018-03-25T08:38:54.608Z,7.08
2018-03-25T08:41:22.341Z,7.11
2018-03-25T08:43:49.803Z,7.15
2018-03-25T08:46:17.288Z,7.22
2018-03-25T08:48:44.798Z,7.29
2018-03-25T08:51:12.335Z,7.42
2018-03-25T08:53:39.908Z,7.53
2018-03-25T08:56:07.401Z,7.64
2018-03-25T08:58:34.908Z,7.78
2018-03-25T09:01:02.468Z,7.87
2018-03-25T09:03:29.920Z,8.00
2018-03-25T09:05:57.467Z,8.18
2018-03-25T09:08:24.942Z,8.33
2018-03-25T09:19:53.219Z,9.01
2018-03-25T09:22:20.804Z,9.12
2018-03-25T09:24:48.348Z,9.25
2018-03-25T09:27:15.835Z,9.40
2018-03-25T09:29:43.514Z,9.49
2018-03-25T09:32:10.976Z,9.72
2018-03-25T09:34:38.538Z,9.93
2018-03-25T09:37:06.088Z,10.14
2018-03-25T09:39:33.681Z,10.38
2018-03-25T09:42:01.147Z,10.51
2018-03-25T09:44:28.718Z,10.78
2018-03-25T09:46:56.268Z,11.04
2018-03-25T09:49:24.046Z,11.29
2018-03-25T09:51:51.560Z,11.40
2018-03-25T09:54:19.016Z,11.63
2018-03-25T09:56:46.565Z,12.03
2018-03-25T09:59:14.054Z,12.42
2018-03-25T10:01:47.142Z,13.02
2018-03-25T10:04:14.678Z,13.51
2018-03-25T10:06:42.746Z,13.64
2018-03-25T10:09:10.202Z,13.46
2018-03-25T10:11:37.660Z,13.61
2018-03-25T10:14:05.166Z,14.16
2018-03-25T10:16:32.705Z,14.59
2018-03-25T10:19:00.232Z,14.50
2018-03-25T10:21:27.744Z,14.46
2018-03-25T10:23:55.255Z,14.98
2018-03-25T10:26:23.645Z,15.51
2018-03-25T10:28:51.206Z,15.87
2018-03-25T10:31:18.860Z,15.77
2018-03-25T10:33:46.418Z,16.52
2018-03-25T10:36:13.882Z,17.55
2018-03-25T10:38:41.490Z,18.13
2018-03-25T10:41:09.006Z,18.12
2018-03-25T10:43:36.503Z,17.74
2018-03-25T10:46:04.014Z,17.79
2018-03-25T10:48:31.504Z,18.31
2018-03-25T10:50:59.412Z,18.78
2018-03-25T10:53:26.977Z,18.80
2018-03-25T10:55:54.503Z,18.62
2018-03-25T10:58:21.982Z,18.67
2018-03-25T11:00:49.467Z,18.94
2018-03-25T11:03:17.016Z,18.90
2018-03-25T11:05:44.512Z,19.10
2018-03-25T11:08:11.961Z,19.25
2018-03-25T11:10:39.527Z,19.69
2018-03-25T11:13:07.036Z,19.81
2018-03-25T11:15:34.594Z,20.17
2018-03-25T11:18:02.258Z,19.65
2018-03-25T11:20:29.736Z,19.55
2018-03-25T11:22:57.253Z,19.92
2018-03-25T11:25:24.821Z,19.90
2018-03-25T11:27:52.327Z,20.04
2018-03-25T11:30:19.799Z,19.58
2018-03-25T11:32:47.284Z,19.38
2018-03-25T11:35:14.797Z,18.93
2018-03-25T11:37:42.303Z,18.61
2018-03-25T11:40:09.855Z,18.54
2018-03-25T11:42:37.313Z,18.92
2018-03-25T11:45:04.790Z,19.08
2018-03-25T11:47:32.376Z,19.30
2018-03-25T11:49:59.822Z,19.65
2018-03-25T11:52:27.403Z,19.91
2018-03-25T11:54:54.870Z,19.90
2018-03-25T11:57:22.348Z,19.79
2018-03-25T11:59:49.965Z,19.71
2018-03-25T12:02:17.455Z,19.22
2018-03-25T12:04:44.949Z,18.89
2018-03-25T12:07:12.447Z,18.55
2018-03-25T12:09:40.427Z,18.39
2018-03-25T12:12:07.936Z,18.61
2018-03-25T12:14:35.404Z,18.84
2018-03-25T12:17:03.146Z,19.73
2018-03-25T12:19:30.669Z,20.26
2018-03-25T12:21:58.181Z,20.29
2018-03-25T12:24:25.740Z,20.82
2018-03-25T12:26:53.397Z,20.75
2018-03-25T12:29:20.923Z,20.09
2018-03-25T12:31:48.429Z,19.73
2018-03-25T12:34:15.963Z,19.58
2018-03-25T12:36:43.445Z,19.17
2018-03-25T12:39:10.933Z,19.38
2018-03-25T12:41:38.696Z,19.54
2018-03-25T12:44:06.143Z,19.55
2018-03-25T12:46:33.708Z,19.60
2018-03-25T12:49:01.224Z,19.41
2018-03-25T12:51:28.797Z,19.41
2018-03-25T12:53:56.525Z,19.98
2018-03-25T12:56:23.983Z,20.14
2018-03-25T12:58:51.438Z,19.73
2018-03-25T13:01:18.966Z,18.54
2018-03-25T13:03:46.444Z,17.39
2018-03-25T13:06:13.967Z,16.96
2018-03-25T13:08:41.460Z,17.33
2018-03-25T13:17:13.210Z,18.02
2018-03-25T13:19:45.641Z,18.88
2018-03-25T13:22:13.173Z,19.20
2018-03-25T13:24:40.651Z,19.77
2018-03-25T13:27:08.129Z,20.09
2018-03-25T13:29:35.622Z,20.56
2018-03-25T13:32:03.126Z,21.34
2018-03-25T13:34:30.593Z,21.78
2018-03-25T13:36:58.079Z,21.29
2018-03-25T13:39:25.583Z,20.92
2018-03-25T13:41:53.419Z,19.89
2018-03-25T13:44:20.935Z,19.01
2018-03-25T13:46:48.374Z,18.30
2018-03-25T13:49:15.867Z,17.86
2018-03-25T13:51:43.335Z,17.48
2018-03-25T13:54:10.843Z,17.22
2018-03-25T13:56:38.435Z,17.04
2018-03-25T13:59:05.966Z,17.23
2018-03-25T14:01:33.522Z,17.23
2018-03-25T14:04:01.124Z,16.95
2018-03-25T14:06:29.018Z,16.72
2018-03-25T14:08:56.475Z,16.68
2018-03-25T14:11:23.982Z,16.71
2018-03-25T14:13:51.533Z,16.62
2018-03-25T14:16:19.023Z,16.61
2018-03-25T14:18:46.555Z,16.30
2018-03-25T14:21:14.952Z,16.26
2018-03-25T14:23:42.474Z,16.16
2018-03-25T14:26:10.163Z,16.12
2018-03-25T14:28:37.686Z,16.04
2018-03-25T14:31:05.156Z,15.82
2018-03-25T14:33:32.657Z,15.46
2018-03-25T14:36:00.143Z,15.37
2018-03-25T14:38:27.945Z,15.29
2018-03-25T14:40:55.416Z,15.36
2018-03-25T14:43:23.031Z,15.27
2018-03-25T14:45:50.618Z,15.18
2018-03-25T14:48:18.101Z,15.11
2018-03-25T14:50:45.629Z,14.91
2018-03-25T14:53:13.098Z,14.87
2018-03-25T14:55:40.611Z,14.67
2018-03-25T14:58:08.047Z,14.57
2018-03-25T15:00:35.560Z,14.45
2018-03-25T15:03:03.057Z,14.33
2018-03-25T15:05:30.512Z,14.23
2018-03-25T15:07:58.397Z,14.14
2018-03-25T15:10:25.848Z,13.98
2018-03-25T15:12:53.314Z,13.90
2018-03-25T15:15:20.854Z,13.85
2018-03-25T15:17:48.389Z,13.76
2018-03-25T15:20:15.882Z,13.65
2018-03-25T15:22:43.458Z,13.60
2018-03-25T15:25:10.948Z,13.55
2018-03-25T15:27:38.424Z,13.51
2018-03-25T15:32:58.326Z,13.37
2018-03-25T15:35:25.834Z,13.36
2018-03-25T15:37:53.375Z,13.35
2018-03-25T15:40:20.913Z,13.36
2018-03-25T15:42:48.492Z,13.38
2018-03-25T15:45:16.040Z,13.36
2018-03-25T15:47:43.508Z,13.30
2018-03-25T15:50:11.020Z,13.29
2018-03-25T15:52:38.526Z,13.24
2018-03-25T15:55:05.988Z,13.22
2018-03-25T15:57:33.505Z,13.19
2018-03-25T16:00:00.994Z,13.16
2018-03-25T16:02:28.462Z,13.08
2018-03-25T16:04:56.051Z,12.98
2018-03-25T16:07:23.532Z,12.95
2018-03-25T16:09:51.159Z,12.86
2018-03-25T16:12:18.591Z,12.88
2018-03-25T16:14:46.044Z,12.86
2018-03-25T16:17:13.521Z,12.76
2018-03-25T16:19:41.040Z,12.71
2018-03-25T16:22:08.548Z,12.67
2018-03-25T16:24:36.081Z,12.69
2018-03-25T16:27:03.548Z,12.71
2018-03-25T16:29:31.128Z,12.74
2018-03-25T16:31:58.601Z,12.72
2018-03-25T16:34:26.068Z,12.65
2018-03-25T16:36:53.516Z,12.59
2018-03-25T16:39:21.470Z,12.55
2018-03-25T16:41:48.996Z,12.50
2018-03-25T16:44:16.471Z,12.49
2018-03-25T16:46:43.979Z,12.47
2018-03-25T16:49:11.444Z,12.48
2018-03-25T16:51:38.893Z,12.47
2018-03-25T16:54:06.388Z,12.48
2018-03-25T16:56:33.905Z,12.52
2018-03-25T16:59:01.399Z,12.46
2018-03-25T17:01:28.888Z,12.33
2018-03-25T17:03:56.423Z,12.29
2018-03-25T17:06:23.922Z,12.21
2018-03-25T17:08:51.503Z,12.11
2018-03-25T17:11:19.071Z,12.07
2018-03-25T17:13:46.513Z,12.10
2018-03-25T17:16:14.076Z,12.09
2018-03-25T17:18:41.547Z,12.04
2018-03-25T17:21:09.028Z,12.00
2018-03-25T17:23:36.531Z,11.96
2018-03-25T17:26:03.988Z,11.98
2018-03-25T17:28:31.491Z,12.02
2018-03-25T17:30:58.991Z,12.00
2018-03-25T17:33:26.611Z,11.89
2018-03-25T17:35:54.148Z,11.89
2018-03-25T17:38:21.619Z,11.85
2018-03-25T17:40:49.410Z,11.86
2018-03-25T17:43:16.937Z,11.84
2018-03-25T17:45:44.385Z,11.82
2018-03-25T17:48:11.893Z,11.83
2018-03-25T17:50:39.403Z,11.79
2018-03-25T17:53:06.898Z,11.77
2018-03-25T17:55:34.481Z,11.79
2018-03-25T17:58:01.940Z,11.73
2018-03-25T18:00:29.417Z,11.66
2018-03-25T18:02:56.915Z,11.60
2018-03-25T18:05:24.674Z,11.52
2018-03-25T18:07:52.266Z,11.50
2018-03-25T18:10:19.713Z,11.42
2018-03-25T18:12:47.237Z,11.37
2018-03-25T18:15:14.801Z,11.36
2018-03-25T18:17:42.328Z,11.36
2018-03-25T18:20:09.831Z,11.36
2018-03-25T18:22:37.521Z,11.30
2018-03-25T18:25:05.148Z,11.32
2018-03-25T18:27:32.618Z,11.23
2018-03-25T18:30:00.167Z,11.26
2018-03-25T18:32:27.737Z,11.29
2018-03-25T18:34:55.233Z,11.23
2018-03-25T18:37:22.790Z,11.24
2018-03-25T18:39:50.427Z,11.19
2018-03-25T18:42:18.219Z,11.18
2018-03-25T18:44:45.920Z,11.14
2018-03-25T18:47:13.641Z,11.11
2018-03-25T18:49:41.227Z,11.09
2018-03-25T18:52:08.720Z,11.06
2018-03-25T18:54:36.227Z,11.05
2018-03-25T18:57:03.716Z,11.01
2018-03-25T18:59:31.272Z,10.98
2018-03-25T19:01:58.840Z,10.98
2018-03-25T19:04:26.354Z,10.97
2018-03-25T19:06:53.904Z,10.96
2018-03-25T19:09:21.405Z,10.94
2018-03-25T19:11:48.905Z,10.91
2018-03-25T19:14:16.448Z,10.89
2018-03-25T19:16:44.010Z,10.90
2018-03-25T19:19:11.522Z,10.90
2018-03-25T19:21:39.025Z,10.93
2018-03-25T19:24:06.573Z,10.94
2018-03-25T19:26:34.288Z,10.86
2018-03-25T19:29:01.798Z,10.83
2018-03-25T19:31:29.343Z,10.80
2018-03-25T19:33:56.944Z,10.79
2018-03-25T19:36:24.389Z,10.75
2018-03-25T19:38:51.910Z,10.74
2018-03-25T19:41:19.422Z,10.69
2018-03-25T19:43:46.974Z,10.59
2018-03-25T19:46:14.455Z,10.55
2018-03-25T19:48:41.960Z,10.59
2018-03-25T19:51:23.752Z,10.57
2018-03-25T19:53:51.247Z,10.60
2018-03-25T19:56:18.772Z,10.60
2018-03-25T19:58:46.327Z,10.59
2018-03-25T20:01:13.898Z,10.57
2018-03-25T20:03:41.479Z,10.51
2018-03-25T20:06:08.966Z,10.47
2018-03-25T20:08:36.469Z,10.45
2018-03-25T20:11:03.997Z,10.44
2018-03-25T20:13:31.514Z,10.47
2018-03-25T20:15:59.008Z,10.45
2018-03-25T20:18:26.490Z,10.46
2018-03-25T20:20:53.947Z,10.46
2018-03-25T20:23:21.445Z,10.37
2018-03-25T20:25:48.944Z,10.33
2018-03-25T20:28:16.412Z,10.09
2018-03-25T20:30:43.880Z,9.85
2018-03-25T20:33:11.440Z,9.70
2018-03-25T20:35:38.983Z,9.68
2018-03-25T20:38:06.546Z,9.73
2018-03-25T20:40:34.050Z,9.71
2018-03-25T20:43:01.549Z,9.64
2018-03-25T20:45:29.025Z,9.60
2018-03-25T20:47:56.567Z,9.65
2018-03-25T20:50:24.028Z,9.67
2018-03-25T20:52:51.565Z,9.68
2018-03-25T20:55:19.092Z,9.71
2018-03-25T20:57:47.397Z,9.76
2018-03-25T21:00:24.510Z,9.83
2018-03-25T21:02:51.990Z,9.77
2018-03-25T21:05:19.523Z,9.68
2018-03-25T21:07:47.014Z,9.58
2018-03-25T21:10:24.218Z,9.58
2018-03-25T21:12:51.651Z,9.59
2018-03-25T21:15:19.122Z,9.61
2018-03-25T21:17:46.649Z,9.65
2018-03-25T21:20:14.109Z,9.67
2018-03-25T21:22:41.586Z,9.70
2018-03-25T21:25:09.072Z,9.71
2018-03-25T21:27:36.602Z,9.65
2018-03-25T21:30:04.049Z,9.56
2018-03-25T21:32:31.500Z,9.54
2018-03-25T21:34:58.987Z,9.58
2018-03-25T21:37:26.429Z,9.57
2018-03-25T21:39:53.867Z,9.52
2018-03-25T21:42:21.381Z,9.43
2018-03-25T21:44:48.843Z,9.46
2018-03-25T21:47:16.334Z,9.52
2018-03-25T21:49:43.789Z,9.54
2018-03-25T21:52:11.268Z,9.60
2018-03-25T21:54:38.731Z,9.63
2018-03-25T21:57:06.236Z,9.60
2018-03-25T21:59:33.675Z,9.55
2018-03-25T22:02:01.135Z,9.57
2018-03-25T22:04:28.614Z,9.53
2018-03-25T22:06:56.116Z,9.42
2018-03-25T22:09:23.582Z,9.24
2018-03-25T22:11:51.096Z,9.18
2018-03-25T22:14:18.590Z,9.16
2018-03-25T22:16:46.155Z,9.27
2018-03-25T22:19:13.613Z,9.22
2018-03-25T22:21:41.068Z,9.28
2018-03-25T22:24:08.581Z,9.27
2018-03-25T22:26:36.085Z,9.28
2018-03-25T22:29:03.553Z,9.28
2018-03-25T22:31:31.338Z,9.25
2018-03-25T22:33:58.885Z,9.20
2018-03-25T22:36:26.393Z,9.09
2018-03-25T22:38:53.883Z,9.02
2018-03-25T22:41:21.377Z,9.01
2018-03-25T22:43:48.835Z,9.04
2018-03-25T22:46:16.349Z,9.12
2018-03-25T22:48:43.816Z,9.18
2018-03-25T22:51:11.316Z,9.19
2018-03-25T22:53:38.775Z,9.29
2018-03-25T22:56:06.231Z,9.24
2018-03-25T22:58:33.676Z,9.23
2018-03-25T23:01:01.197Z,9.26
2018-03-25T23:03:28.680Z,9.25
2018-03-25T23:05:56.159Z,9.23
2018-03-25T23:08:23.614Z,9.10
2018-03-25T23:10:51.085Z,9.03
2018-03-25T23:13:18.532Z,8.99
2018-03-25T23:15:46.104Z,8.95
2018-03-25T23:18:13.552Z,8.87
2018-03-25T23:20:40.986Z,8.79
2018-03-25T23:23:08.487Z,8.73
2018-03-25T23:25:36.108Z,8.71
2018-03-25T23:28:03.510Z,8.74
2018-03-25T23:30:31.035Z,8.71
2018-03-25T23:32:58.557Z,8.66
2018-03-25T23:35:26.009Z,8.63
2018-03-25T23:37:53.464Z,8.60
2018-03-25T23:40:20.965Z,8.61
2018-03-25T23:42:48.704Z,8.67
2018-03-25T23:45:16.144Z,8.70
2018-03-25T23:47:43.654Z,8.78
2018-03-25T23:50:11.130Z,8.87
2018-03-25T23:52:38.584Z,8.97
2018-03-25T23:55:06.328Z,8.99
2018-03-25T23:57:33.752Z,8.95
